Ana Sayfa
METAR-TAF:

METAR-TAF

Havaalanları :

Oscoda-Wurtsmith Airport

Oscoda, Michigan, Amerika Birleşik Devletleri

Enlem: 44-27N, Boylam: 083-22W, yükseklik: 193 m

Güncel hava durumu gözlemi

Rapor saat 17:55 UTC de 10 dakika önce yapıldı.
Rüzgar güney/güneydoğudan 10 kt ve 15 kt'a kadar ani rüzgarlar
Sıcaklık 0°C
Nem 100%
Basınç 1001 hPa
Görüş mesafesi: 2.8 km
500 ft yükseklikte çok bulutlu
hafif kar

METAR: KOSC 181755Z AUTO 15010G15KT 1 3/4SM -SN OVC005 00/00 A2955 RMK AO2 60003 T00031003 10003 21027

Saat: 13:05 (18:05 UTC)


TAF: eksik

4.000'den fazla havaalanı için hava durumu gözlemleri ve tahminleri (METAR ve TAF raporları).

Kullanılabilir istasyonlar harita üzerinde sarı ve kırmızı noktalarla gösterilir.

İstasyonun adını görmek için fareyi noktanın üzerinde gezdirin.

Sonrasında hava gözlem ve tahminlerini görmek için tıklayın.

Haritayı değiştirmek için: yaklaştırmak için siyah artı işaretli yeşil düğmeye ve uzaklaştırmak için de eksi işaretli düğmeye hızla tıklayın; bitişik haritalar için yeşil okları kullanın.


METAR-TAF: